Aeroporto :
LOGIN :

Iscrizione | Disclaimer

   EN    FR    IT 

 










Sommario :    VFR   VFR Marginale   IFR   IFR Intensivo   IFR Molto Intensivo
Visibilità : 
Base nubi : 
>= 8 km
>= 3000ft
5 / 8 km
1000 / 3000 ft
1500m / 5 km
500 / 1000 ft
800 / 1500m
200 / 500 ft
< 800m
< 200 ft
Simboli :   Temporali  Nebbia  Neve Forte  Precipitazioni Forti  Vento > 20 kt
SIGMETs :   Varie  Temporali  Ghiacco  Turbolenza  Onda orograficha  Ceneri Vulcaniche






- Altitudine del aeroporto : 245 ft
- Codice IATA : BIQ


LFBZ - Biarritz

ULTIMO METAR :
  • 171130Z AUTO 27007KT 180V300 5000 -RA BR BKN006 BKN013 BKN027 11/10 Q1029 TEMPO 32018G30KT SHRA BKN025TCU

METARs OBSOLETI :
  • 171100Z AUTO 28008KT 250V310 4500 -RA BR SCT006/// BKN010/// BKN017/// ///TCU 11/10 Q1029 TEMPO 32018G30KT 2000 RADZ BKN004
  • 171030Z AUTO 28007KT 240V300 4500 -RA BR BKN008/// BKN016/// BKN024/// ///TCU 10/10 Q1029 TEMPO 32018G30KT 2000 RADZ BKN004
  • 171000Z AUTO 27005KT 230V290 4800 -RA BR BKN006 BKN011 OVC018 10/10 Q1028 TEMPO 26015G25KT 2000 RADZ BKN004
  • 170930Z AUTO 29006KT 240V330 3300 -RA BR BKN006 BKN012 BKN020 10/10 Q1028 TEMPO 26015G25KT 2000 RADZ BKN013 OVC025
  • 170900Z AUTO 30013KT 3800 -DZ BR SCT007 SCT015 BKN021 10/09 Q1028 TEMPO 26015G25KT 2000 RADZ BKN013 OVC025

TAF TAF LFBZ
Valido dal 17 a 12 ore il 18 a 12 ore UTC


171100Z 1712/1812 29010KT 4500 -RA BKN005 BKN013 OVC020TCU
BECMG 1712/1714 9999 NSW SCT025 BKN050
TEMPO 1714/1718 26015G25KT 3000 SHRA SCT009 BKN013TCU
TEMPO 1806/1812 18004KT



MetMap, La meteo Aeronautica in un colpo d'occhio ! - Copyright ORBIFLY Dicembre 2007 - Disclaimer

ORBIFLY MET'MAP TEAM :

Programmazione e sviluppo : Alexandra Zaïnal
Concezione : Baudouin d'Aumeries
Aiuto per la programmazione : Marc-Olivier Méhu
Supporto tecnico e logistico : Manuel Goepfert
Aiuto per la traduzione : Arnaldo La Scala

Contatto : metmap@orbifly.com




FONTI E CREDITI :

   NOAA